sensor_id;sensor_type;location;lat;lon;timestamp;pressure;altitude;pressure_sealevel;temperature;humidity
9740;BME280;4909;42.680;26.324;2023-01-27T00:00:11;97879.84;;;7.22;100.00
9740;BME280;4909;42.680;26.324;2023-01-27T00:02:38;97883.31;;;7.24;100.00
9740;BME280;4909;42.680;26.324;2023-01-27T00:05:06;97882.69;;;7.18;100.00
9740;BME280;4909;42.680;26.324;2023-01-27T00:07:34;97854.59;;;6.96;100.00
9740;BME280;4909;42.680;26.324;2023-01-27T00:10:01;97873.53;;;7.06;100.00
9740;BME280;4909;42.680;26.324;2023-01-27T00:12:29;97895.69;;;7.22;100.00
9740;BME280;4909;42.680;26.324;2023-01-27T00:15:14;97895.97;;;7.16;100.00
9740;BME280;4909;42.680;26.324;2023-01-27T00:17:41;97851.63;;;6.84;100.00
9740;BME280;4909;42.680;26.324;2023-01-27T00:20:09;97895.84;;;7.19;100.00
9740;BME280;4909;42.680;26.324;2023-01-27T00:22:36;97900.97;;;7.22;100.00
9740;BME280;4909;42.680;26.324;2023-01-27T00:25:20;97869.50;;;7.18;100.00
9740;BME280;4909;42.680;26.324;2023-01-27T00:27:48;97887.66;;;7.25;100.00
9740;BME280;4909;42.680;26.324;2023-01-27T00:30:15;97879.00;;;7.22;100.00
9740;BME280;4909;42.680;26.324;2023-01-27T00:32:42;97880.25;;;7.33;100.00
9740;BME280;4909;42.680;26.324;2023-01-27T00:35:26;97865.22;;;7.15;100.00
9740;BME280;4909;42.680;26.324;2023-01-27T00:37:54;97843.78;;;7.03;100.00
9740;BME280;4909;42.680;26.324;2023-01-27T00:40:20;97881.59;;;7.23;100.00
9740;BME280;4909;42.680;26.324;2023-01-27T00:42:49;97863.91;;;7.25;100.00
9740;BME280;4909;42.680;26.324;2023-01-27T00:45:15;97869.31;;;7.22;100.00
9740;BME280;4909;42.680;26.324;2023-01-27T00:47:59;97881.94;;;7.16;100.00
9740;BME280;4909;42.680;26.324;2023-01-27T00:50:26;97881.44;;;7.26;100.00
9740;BME280;4909;42.680;26.324;2023-01-27T00:52:53;97886.34;;;7.35;100.00
9740;BME280;4909;42.680;26.324;2023-01-27T00:55:22;97874.72;;;7.39;100.00
9740;BME280;4909;42.680;26.324;2023-01-27T00:57:50;97881.53;;;7.45;100.00
9740;BME280;4909;42.680;26.324;2023-01-27T01:00:17;97888.84;;;7.38;100.00
9740;BME280;4909;42.680;26.324;2023-01-27T01:02:44;97881.38;;;7.28;100.00
9740;BME280;4909;42.680;26.324;2023-01-27T01:05:10;97878.63;;;7.31;100.00
9740;BME280;4909;42.680;26.324;2023-01-27T01:07:37;97872.69;;;7.26;100.00
9740;BME280;4909;42.680;26.324;2023-01-27T01:10:05;97869.44;;;7.19;100.00
9740;BME280;4909;42.680;26.324;2023-01-27T01:12:32;97868.13;;;7.29;100.00
9740;BME280;4909;42.680;26.324;2023-01-27T01:15:00;97865.34;;;7.32;100.00
9740;BME280;4909;42.680;26.324;2023-01-27T01:17:26;97861.06;;;7.30;100.00
9740;BME280;4909;42.680;26.324;2023-01-27T01:19:53;97864.22;;;7.38;100.00
9740;BME280;4909;42.680;26.324;2023-01-27T01:22:20;97865.28;;;7.34;100.00
9740;BME280;4909;42.680;26.324;2023-01-27T01:24:47;97861.72;;;7.35;100.00
9740;BME280;4909;42.680;26.324;2023-01-27T01:27:13;97856.72;;;7.29;100.00
9740;BME280;4909;42.680;26.324;2023-01-27T01:29:40;97852.41;;;7.26;100.00
9740;BME280;4909;42.680;26.324;2023-01-27T01:32:08;97798.59;;;7.10;100.00
9740;BME280;4909;42.680;26.324;2023-01-27T01:34:35;97838.50;;;7.23;100.00
9740;BME280;4909;42.680;26.324;2023-01-27T01:37:02;97848.03;;;7.46;100.00
9740;BME280;4909;42.680;26.324;2023-01-27T01:39:29;97842.03;;;7.42;100.00
9740;BME280;4909;42.680;26.324;2023-01-27T01:41:56;97842.78;;;7.25;100.00
9740;BME280;4909;42.680;26.324;2023-01-27T01:44:25;97817.25;;;7.26;100.00
9740;BME280;4909;42.680;26.324;2023-01-27T01:46:52;97838.28;;;7.27;100.00
9740;BME280;4909;42.680;26.324;2023-01-27T01:49:22;97829.09;;;7.36;100.00
9740;BME280;4909;42.680;26.324;2023-01-27T01:51:54;97834.66;;;7.50;100.00
9740;BME280;4909;42.680;26.324;2023-01-27T01:54:24;97809.19;;;7.29;100.00
9740;BME280;4909;42.680;26.324;2023-01-27T01:56:56;97808.63;;;7.41;100.00
9740;BME280;4909;42.680;26.324;2023-01-27T01:59:26;97803.44;;;7.39;100.00
9740;BME280;4909;42.680;26.324;2023-01-27T02:01:56;97802.16;;;7.29;100.00
9740;BME280;4909;42.680;26.324;2023-01-27T02:04:28;97796.97;;;7.26;100.00
9740;BME280;4909;42.680;26.324;2023-01-27T02:07:01;97804.38;;;7.38;100.00
9740;BME280;4909;42.680;26.324;2023-01-27T02:09:30;97805.56;;;7.31;100.00
9740;BME280;4909;42.680;26.324;2023-01-27T02:11:57;97795.84;;;7.32;100.00
9740;BME280;4909;42.680;26.324;2023-01-27T02:14:24;97800.34;;;7.50;100.00
9740;BME280;4909;42.680;26.324;2023-01-27T02:16:51;97745.72;;;7.32;100.00
9740;BME280;4909;42.680;26.324;2023-01-27T02:19:24;97765.69;;;7.56;100.00
9740;BME280;4909;42.680;26.324;2023-01-27T02:21:55;97759.94;;;7.48;100.00
9740;BME280;4909;42.680;26.324;2023-01-27T02:24:28;97753.78;;;7.48;100.00
9740;BME280;4909;42.680;26.324;2023-01-27T02:26:58;97757.78;;;7.37;100.00
9740;BME280;4909;42.680;26.324;2023-01-27T02:29:25;97765.41;;;7.43;100.00
9740;BME280;4909;42.680;26.324;2023-01-27T02:31:53;97790.91;;;7.63;100.00
9740;BME280;4909;42.680;26.324;2023-01-27T02:34:22;97810.03;;;7.50;100.00
9740;BME280;4909;42.680;26.324;2023-01-27T02:36:54;97808.56;;;7.42;100.00
9740;BME280;4909;42.680;26.324;2023-01-27T02:39:28;97771.03;;;7.36;100.00
9740;BME280;4909;42.680;26.324;2023-01-27T02:41:59;97741.88;;;7.39;100.00
9740;BME280;4909;42.680;26.324;2023-01-27T02:44:28;97732.59;;;7.30;100.00
9740;BME280;4909;42.680;26.324;2023-01-27T02:46:54;97747.91;;;7.41;100.00
9740;BME280;4909;42.680;26.324;2023-01-27T02:49:21;97755.50;;;7.49;100.00
9740;BME280;4909;42.680;26.324;2023-01-27T02:51:48;97731.16;;;7.42;100.00
9740;BME280;4909;42.680;26.324;2023-01-27T02:54:14;97724.09;;;7.42;100.00
9740;BME280;4909;42.680;26.324;2023-01-27T02:56:41;97701.41;;;7.20;100.00
9740;BME280;4909;42.680;26.324;2023-01-27T02:59:09;97708.84;;;7.30;100.00
9740;BME280;4909;42.680;26.324;2023-01-27T03:01:36;97718.06;;;7.40;100.00
9740;BME280;4909;42.680;26.324;2023-01-27T03:04:03;97729.97;;;7.49;100.00
9740;BME280;4909;42.680;26.324;2023-01-27T03:06:30;97735.72;;;7.57;100.00
9740;BME280;4909;42.680;26.324;2023-01-27T03:08:57;97717.25;;;7.38;100.00
9740;BME280;4909;42.680;26.324;2023-01-27T03:11:23;97735.38;;;7.46;100.00
9740;BME280;4909;42.680;26.324;2023-01-27T03:14:04;97692.06;;;7.13;100.00
9740;BME280;4909;42.680;26.324;2023-01-27T03:16:35;97717.03;;;7.43;100.00
9740;BME280;4909;42.680;26.324;2023-01-27T03:19:19;97725.88;;;7.42;100.00
9740;BME280;4909;42.680;26.324;2023-01-27T03:21:46;97713.91;;;7.35;100.00
9740;BME280;4909;42.680;26.324;2023-01-27T03:24:15;97701.34;;;7.40;100.00
9740;BME280;4909;42.680;26.324;2023-01-27T03:26:42;97694.41;;;7.37;100.00
9740;BME280;4909;42.680;26.324;2023-01-27T03:29:09;97687.16;;;7.42;100.00
9740;BME280;4909;42.680;26.324;2023-01-27T03:31:54;97678.97;;;7.30;100.00
9740;BME280;4909;42.680;26.324;2023-01-27T03:34:21;97684.56;;;7.41;100.00
9740;BME280;4909;42.680;26.324;2023-01-27T03:36:48;97693.56;;;7.56;100.00
9740;BME280;4909;42.680;26.324;2023-01-27T03:39:32;97694.16;;;7.43;100.00
9740;BME280;4909;42.680;26.324;2023-01-27T03:42:16;97698.78;;;7.57;100.00
9740;BME280;4909;42.680;26.324;2023-01-27T03:45:00;97717.59;;;7.68;100.00
9740;BME280;4909;42.680;26.324;2023-01-27T03:47:46;97706.47;;;7.62;100.00
9740;BME280;4909;42.680;26.324;2023-01-27T03:50:13;97697.78;;;7.60;100.00
9740;BME280;4909;42.680;26.324;2023-01-27T03:52:45;97718.53;;;7.67;100.00
9740;BME280;4909;42.680;26.324;2023-01-27T03:55:27;97719.59;;;7.82;100.00
9740;BME280;4909;42.680;26.324;2023-01-27T03:57:54;97708.00;;;7.84;100.00
9740;BME280;4909;42.680;26.324;2023-01-27T04:00:22;97700.09;;;7.66;100.00
9740;BME280;4909;42.680;26.324;2023-01-27T04:02:50;97695.56;;;7.69;100.00
9740;BME280;4909;42.680;26.324;2023-01-27T04:05:34;97690.28;;;7.69;100.00
9740;BME280;4909;42.680;26.324;2023-01-27T04:08:18;97685.25;;;7.82;100.00
9740;BME280;4909;42.680;26.324;2023-01-27T04:10:45;97689.31;;;7.70;100.00
9740;BME280;4909;42.680;26.324;2023-01-27T04:13:32;97693.63;;;7.73;100.00
9740;BME280;4909;42.680;26.324;2023-01-27T04:15:57;97700.41;;;7.78;100.00
9740;BME280;4909;42.680;26.324;2023-01-27T04:18:26;97696.66;;;7.82;100.00
9740;BME280;4909;42.680;26.324;2023-01-27T04:20:52;97686.78;;;7.69;100.00
9740;BME280;4909;42.680;26.324;2023-01-27T04:23:19;97688.59;;;7.85;100.00
9740;BME280;4909;42.680;26.324;2023-01-27T04:25:46;97686.97;;;8.00;100.00
9740;BME280;4909;42.680;26.324;2023-01-27T04:28:14;97692.50;;;7.96;100.00
9740;BME280;4909;42.680;26.324;2023-01-27T04:30:41;97679.50;;;7.91;100.00
9740;BME280;4909;42.680;26.324;2023-01-27T04:33:07;97679.56;;;7.90;100.00
9740;BME280;4909;42.680;26.324;2023-01-27T04:35:36;97671.34;;;7.96;100.00
9740;BME280;4909;42.680;26.324;2023-01-27T04:38:02;97677.72;;;8.09;100.00
9740;BME280;4909;42.680;26.324;2023-01-27T04:40:29;97678.19;;;8.00;100.00
9740;BME280;4909;42.680;26.324;2023-01-27T04:42:56;97674.88;;;8.13;100.00
9740;BME280;4909;42.680;26.324;2023-01-27T04:45:23;97670.44;;;8.14;100.00
9740;BME280;4909;42.680;26.324;2023-01-27T04:47:50;97665.31;;;8.11;100.00
9740;BME280;4909;42.680;26.324;2023-01-27T04:50:17;97665.47;;;8.08;100.00
9740;BME280;4909;42.680;26.324;2023-01-27T04:52:45;97665.88;;;8.17;100.00
9740;BME280;4909;42.680;26.324;2023-01-27T04:55:12;97652.28;;;8.08;100.00
9740;BME280;4909;42.680;26.324;2023-01-27T04:57:39;97628.41;;;7.92;100.00
9740;BME280;4909;42.680;26.324;2023-01-27T05:00:07;97631.66;;;7.97;100.00
9740;BME280;4909;42.680;26.324;2023-01-27T05:02:34;97642.84;;;8.19;100.00
9740;BME280;4909;42.680;26.324;2023-01-27T05:05:00;97642.56;;;8.08;100.00
9740;BME280;4909;42.680;26.324;2023-01-27T05:07:29;97667.78;;;8.14;100.00
9740;BME280;4909;42.680;26.324;2023-01-27T05:09:57;97667.66;;;8.17;100.00
9740;BME280;4909;42.680;26.324;2023-01-27T05:12:24;97632.00;;;8.08;100.00
9740;BME280;4909;42.680;26.324;2023-01-27T05:14:51;97656.38;;;8.13;100.00
9740;BME280;4909;42.680;26.324;2023-01-27T05:17:25;97654.41;;;8.00;100.00
9740;BME280;4909;42.680;26.324;2023-01-27T05:19:56;97668.53;;;8.17;100.00
9740;BME280;4909;42.680;26.324;2023-01-27T05:22:23;97669.91;;;8.24;100.00
9740;BME280;4909;42.680;26.324;2023-01-27T05:24:49;97659.69;;;8.36;100.00
9740;BME280;4909;42.680;26.324;2023-01-27T05:27:17;97664.56;;;8.43;100.00
9740;BME280;4909;42.680;26.324;2023-01-27T05:29:44;97646.16;;;8.42;100.00
9740;BME280;4909;42.680;26.324;2023-01-27T05:32:12;97666.03;;;8.49;100.00
9740;BME280;4909;42.680;26.324;2023-01-27T05:34:38;97663.88;;;8.40;100.00
9740;BME280;4909;42.680;26.324;2023-01-27T05:37:05;97667.94;;;8.28;100.00
9740;BME280;4909;42.680;26.324;2023-01-27T05:39:32;97668.63;;;8.50;100.00
9740;BME280;4909;42.680;26.324;2023-01-27T05:41:58;97667.91;;;8.64;100.00
9740;BME280;4909;42.680;26.324;2023-01-27T05:44:27;97667.09;;;8.62;100.00
9740;BME280;4909;42.680;26.324;2023-01-27T05:46:53;97666.41;;;8.76;100.00
9740;BME280;4909;42.680;26.324;2023-01-27T05:49:20;97669.44;;;8.85;100.00
9740;BME280;4909;42.680;26.324;2023-01-27T05:51:47;97657.56;;;8.92;100.00
9740;BME280;4909;42.680;26.324;2023-01-27T05:54:14;97657.50;;;8.94;100.00
9740;BME280;4909;42.680;26.324;2023-01-27T05:56:41;97656.31;;;8.99;100.00
9740;BME280;4909;42.680;26.324;2023-01-27T05:59:09;97652.00;;;9.14;100.00
9740;BME280;4909;42.680;26.324;2023-01-27T06:01:37;97643.88;;;9.17;100.00
9740;BME280;4909;42.680;26.324;2023-01-27T06:04:05;97653.94;;;9.26;100.00
9740;BME280;4909;42.680;26.324;2023-01-27T06:06:32;97638.91;;;9.27;100.00
9740;BME280;4909;42.680;26.324;2023-01-27T06:08:59;97643.88;;;9.17;100.00
9740;BME280;4909;42.680;26.324;2023-01-27T06:11:26;97632.34;;;9.18;100.00
9740;BME280;4909;42.680;26.324;2023-01-27T06:13:53;97607.06;;;9.12;100.00
9740;BME280;4909;42.680;26.324;2023-01-27T06:16:21;97626.63;;;9.26;100.00
9740;BME280;4909;42.680;26.324;2023-01-27T06:18:49;97622.50;;;9.20;100.00
9740;BME280;4909;42.680;26.324;2023-01-27T06:21:16;97598.44;;;9.09;100.00
9740;BME280;4909;42.680;26.324;2023-01-27T06:23:44;97621.34;;;9.41;100.00
9740;BME280;4909;42.680;26.324;2023-01-27T06:26:13;97623.03;;;9.42;100.00
9740;BME280;4909;42.680;26.324;2023-01-27T06:28:41;97630.28;;;9.54;100.00
9740;BME280;4909;42.680;26.324;2023-01-27T06:31:10;97633.03;;;9.53;100.00
9740;BME280;4909;42.680;26.324;2023-01-27T06:33:37;97640.72;;;9.57;100.00
9740;BME280;4909;42.680;26.324;2023-01-27T06:36:07;97650.03;;;9.49;100.00
9740;BME280;4909;42.680;26.324;2023-01-27T06:38:35;97649.13;;;9.34;100.00
9740;BME280;4909;42.680;26.324;2023-01-27T06:41:03;97642.84;;;9.35;100.00
9740;BME280;4909;42.680;26.324;2023-01-27T06:43:30;97640.72;;;9.42;100.00
9740;BME280;4909;42.680;26.324;2023-01-27T06:45:57;97647.56;;;9.46;100.00
9740;BME280;4909;42.680;26.324;2023-01-27T06:48:24;97648.56;;;9.59;100.00
9740;BME280;4909;42.680;26.324;2023-01-27T06:50:51;97655.75;;;9.57;100.00
9740;BME280;4909;42.680;26.324;2023-01-27T06:53:20;97661.13;;;9.55;100.00
9740;BME280;4909;42.680;26.324;2023-01-27T06:55:47;97661.47;;;9.49;100.00
9740;BME280;4909;42.680;26.324;2023-01-27T06:58:14;97661.13;;;9.40;100.00
9740;BME280;4909;42.680;26.324;2023-01-27T07:00:41;97690.63;;;9.65;100.00
9740;BME280;4909;42.680;26.324;2023-01-27T07:03:10;97696.84;;;9.64;100.00
9740;BME280;4909;42.680;26.324;2023-01-27T07:05:38;97693.13;;;9.68;100.00
9740;BME280;4909;42.680;26.324;2023-01-27T07:08:05;97688.50;;;9.72;100.00
9740;BME280;4909;42.680;26.324;2023-01-27T07:10:33;97686.84;;;9.69;100.00
9740;BME280;4909;42.680;26.324;2023-01-27T07:13:04;97687.81;;;9.68;100.00
9740;BME280;4909;42.680;26.324;2023-01-27T07:15:31;97680.69;;;9.69;100.00
9740;BME280;4909;42.680;26.324;2023-01-27T07:17:58;97686.09;;;9.67;100.00
9740;BME280;4909;42.680;26.324;2023-01-27T07:20:25;97690.69;;;9.64;100.00
9740;BME280;4909;42.680;26.324;2023-01-27T07:22:54;97685.16;;;9.68;100.00
9740;BME280;4909;42.680;26.324;2023-01-27T07:25:21;97680.97;;;9.33;100.00
9740;BME280;4909;42.680;26.324;2023-01-27T07:27:50;97686.03;;;9.20;100.00
9740;BME280;4909;42.680;26.324;2023-01-27T07:30:17;97685.56;;;9.29;100.00
9740;BME280;4909;42.680;26.324;2023-01-27T07:32:43;97676.00;;;9.42;100.00
9740;BME280;4909;42.680;26.324;2023-01-27T07:35:10;97664.56;;;9.57;100.00
9740;BME280;4909;42.680;26.324;2023-01-27T07:37:37;97666.69;;;9.67;100.00
9740;BME280;4909;42.680;26.324;2023-01-27T07:40:05;97663.88;;;9.70;100.00
9740;BME280;4909;42.680;26.324;2023-01-27T07:42:32;97655.91;;;9.70;100.00
9740;BME280;4909;42.680;26.324;2023-01-27T07:45:01;97658.09;;;9.63;100.00
9740;BME280;4909;42.680;26.324;2023-01-27T07:47:27;97648.09;;;9.68;100.00
9740;BME280;4909;42.680;26.324;2023-01-27T07:49:54;97644.78;;;9.79;100.00
9740;BME280;4909;42.680;26.324;2023-01-27T07:52:21;97644.72;;;9.80;100.00
9740;BME280;4909;42.680;26.324;2023-01-27T07:54:48;97630.94;;;9.74;100.00
9740;BME280;4909;42.680;26.324;2023-01-27T07:57:14;97636.78;;;9.80;100.00
9740;BME280;4909;42.680;26.324;2023-01-27T07:59:41;97587.09;;;9.38;100.00
9740;BME280;4909;42.680;26.324;2023-01-27T08:02:09;97636.97;;;9.77;100.00
9740;BME280;4909;42.680;26.324;2023-01-27T08:04:36;97623.78;;;9.76;100.00
9740;BME280;4909;42.680;26.324;2023-01-27T08:07:04;97633.00;;;9.69;100.00
9740;BME280;4909;42.680;26.324;2023-01-27T08:09:31;97636.25;;;9.74;100.00
9740;BME280;4909;42.680;26.324;2023-01-27T08:11:58;97633.88;;;9.69;100.00
9740;BME280;4909;42.680;26.324;2023-01-27T08:14:25;97630.22;;;9.72;100.00
9740;BME280;4909;42.680;26.324;2023-01-27T08:16:51;97625.50;;;9.77;100.00
9740;BME280;4909;42.680;26.324;2023-01-27T08:19:20;97615.97;;;9.88;100.00
9740;BME280;4909;42.680;26.324;2023-01-27T08:21:46;97604.00;;;9.97;100.00
9740;BME280;4909;42.680;26.324;2023-01-27T08:24:13;97603.81;;;10.00;100.00
9740;BME280;4909;42.680;26.324;2023-01-27T08:26:40;97600.03;;;10.04;100.00
9740;BME280;4909;42.680;26.324;2023-01-27T08:29:07;97590.78;;;10.11;100.00
9740;BME280;4909;42.680;26.324;2023-01-27T08:31:34;97582.41;;;10.19;100.00
9740;BME280;4909;42.680;26.324;2023-01-27T08:34:01;97584.97;;;10.20;100.00
9740;BME280;4909;42.680;26.324;2023-01-27T08:36:29;97566.16;;;10.09;100.00
9740;BME280;4909;42.680;26.324;2023-01-27T08:38:56;97576.53;;;10.28;100.00
9740;BME280;4909;42.680;26.324;2023-01-27T08:41:25;97580.06;;;10.28;100.00
9740;BME280;4909;42.680;26.324;2023-01-27T08:43:53;97580.59;;;10.19;100.00
9740;BME280;4909;42.680;26.324;2023-01-27T08:46:20;97602.91;;;10.31;100.00
9740;BME280;4909;42.680;26.324;2023-01-27T08:48:47;97610.34;;;10.24;100.00
9740;BME280;4909;42.680;26.324;2023-01-27T08:51:14;97615.75;;;10.23;100.00
9740;BME280;4909;42.680;26.324;2023-01-27T08:53:43;97601.63;;;10.22;100.00
9740;BME280;4909;42.680;26.324;2023-01-27T08:56:11;97592.66;;;10.25;100.00
9740;BME280;4909;42.680;26.324;2023-01-27T08:58:38;97599.13;;;10.35;100.00
9740;BME280;4909;42.680;26.324;2023-01-27T09:01:06;97606.97;;;10.36;100.00
9740;BME280;4909;42.680;26.324;2023-01-27T09:03:33;97609.88;;;10.32;100.00
9740;BME280;4909;42.680;26.324;2023-01-27T09:06:01;97602.03;;;10.30;100.00
9740;BME280;4909;42.680;26.324;2023-01-27T09:08:28;97595.03;;;10.29;100.00
9740;BME280;4909;42.680;26.324;2023-01-27T09:10:56;97586.78;;;10.20;100.00
9740;BME280;4909;42.680;26.324;2023-01-27T09:13:23;97576.84;;;10.08;100.00
9740;BME280;4909;42.680;26.324;2023-01-27T09:15:51;97529.84;;;9.81;100.00
9740;BME280;4909;42.680;26.324;2023-01-27T09:18:18;97539.16;;;10.02;100.00
9740;BME280;4909;42.680;26.324;2023-01-27T09:20:45;97546.94;;;10.06;100.00
9740;BME280;4909;42.680;26.324;2023-01-27T09:23:12;97506.19;;;9.92;100.00
9740;BME280;4909;42.680;26.324;2023-01-27T09:25:38;97549.38;;;10.24;100.00
9740;BME280;4909;42.680;26.324;2023-01-27T09:28:07;97522.97;;;10.07;100.00
9740;BME280;4909;42.680;26.324;2023-01-27T09:30:41;97542.81;;;10.16;100.00
9740;BME280;4909;42.680;26.324;2023-01-27T09:33:09;97543.97;;;10.26;100.00
9740;BME280;4909;42.680;26.324;2023-01-27T09:35:39;97547.09;;;10.32;100.00
9740;BME280;4909;42.680;26.324;2023-01-27T09:38:08;97547.50;;;10.40;100.00
9740;BME280;4909;42.680;26.324;2023-01-27T09:40:46;97547.28;;;10.29;100.00
9740;BME280;4909;42.680;26.324;2023-01-27T09:43:44;97542.56;;;10.34;100.00
9740;BME280;4909;42.680;26.324;2023-01-27T09:46:37;97533.47;;;10.24;100.00
9740;BME280;4909;42.680;26.324;2023-01-27T09:49:29;97524.00;;;10.20;100.00
9740;BME280;4909;42.680;26.324;2023-01-27T09:52:15;97521.13;;;9.79;100.00
9740;BME280;4909;42.680;26.324;2023-01-27T09:54:55;97542.03;;;9.84;100.00
9740;BME280;4909;42.680;26.324;2023-01-27T09:57:33;97535.13;;;9.81;100.00
9740;BME280;4909;42.680;26.324;2023-01-27T10:03:30;97521.16;;;10.08;100.00
9740;BME280;4909;42.680;26.324;2023-01-27T10:06:13;97514.84;;;10.10;100.00
9740;BME280;4909;42.680;26.324;2023-01-27T10:09:08;97507.56;;;10.14;100.00
9740;BME280;4909;42.680;26.324;2023-01-27T10:11:44;97500.41;;;10.16;100.00
9740;BME280;4909;42.680;26.324;2023-01-27T10:14:22;97500.88;;;10.22;100.00
9740;BME280;4909;42.680;26.324;2023-01-27T10:17:19;97494.16;;;10.31;100.00
9740;BME280;4909;42.680;26.324;2023-01-27T10:20:00;97468.09;;;10.23;100.00
9740;BME280;4909;42.680;26.324;2023-01-27T10:22:39;97487.72;;;10.49;100.00
9740;BME280;4909;42.680;26.324;2023-01-27T10:25:18;97480.34;;;10.54;100.00
9740;BME280;4909;42.680;26.324;2023-01-27T10:27:53;97471.97;;;10.60;100.00
9740;BME280;4909;42.680;26.324;2023-01-27T10:30:27;97469.69;;;10.68;100.00
9740;BME280;4909;42.680;26.324;2023-01-27T10:32:59;97458.31;;;10.66;100.00
9740;BME280;4909;42.680;26.324;2023-01-27T10:35:39;97442.63;;;10.49;100.00
9740;BME280;4909;42.680;26.324;2023-01-27T10:38:16;97452.81;;;9.98;100.00
9740;BME280;4909;42.680;26.324;2023-01-27T10:40:49;97438.13;;;9.93;100.00
9740;BME280;4909;42.680;26.324;2023-01-27T10:43:23;97436.31;;;9.79;100.00
9740;BME280;4909;42.680;26.324;2023-01-27T10:45:59;97407.53;;;9.59;100.00
9740;BME280;4909;42.680;26.324;2023-01-27T10:48:35;97425.16;;;9.74;100.00
9740;BME280;4909;42.680;26.324;2023-01-27T10:51:08;97430.31;;;9.91;100.00
9740;BME280;4909;42.680;26.324;2023-01-27T10:53:45;97422.16;;;9.94;100.00
9740;BME280;4909;42.680;26.324;2023-01-27T10:56:18;97388.53;;;9.67;100.00
9740;BME280;4909;42.680;26.324;2023-01-27T10:58:54;97422.78;;;9.70;100.00
9740;BME280;4909;42.680;26.324;2023-01-27T11:01:27;97396.50;;;9.81;100.00
9740;BME280;4909;42.680;26.324;2023-01-27T11:04:00;97385.94;;;9.51;100.00
9740;BME280;4909;42.680;26.324;2023-01-27T11:06:34;97414.09;;;9.68;100.00
9740;BME280;4909;42.680;26.324;2023-01-27T11:09:09;97411.41;;;9.53;100.00
9740;BME280;4909;42.680;26.324;2023-01-27T11:11:40;97397.50;;;9.64;100.00
9740;BME280;4909;42.680;26.324;2023-01-27T11:14:23;97405.09;;;9.98;100.00
9740;BME280;4909;42.680;26.324;2023-01-27T11:16:52;97407.88;;;9.97;100.00
9740;BME280;4909;42.680;26.324;2023-01-27T11:19:27;97405.50;;;10.07;100.00
9740;BME280;4909;42.680;26.324;2023-01-27T11:21:58;97409.84;;;9.93;100.00
9740;BME280;4909;42.680;26.324;2023-01-27T11:24:32;97410.03;;;9.90;100.00
9740;BME280;4909;42.680;26.324;2023-01-27T11:27:10;97410.00;;;9.62;100.00
9740;BME280;4909;42.680;26.324;2023-01-27T11:29:44;97412.22;;;9.40;100.00
9740;BME280;4909;42.680;26.324;2023-01-27T11:32:20;97409.75;;;9.07;100.00
9740;BME280;4909;42.680;26.324;2023-01-27T11:34:59;97422.69;;;9.27;100.00
9740;BME280;4909;42.680;26.324;2023-01-27T11:37:31;97398.72;;;8.85;100.00
9740;BME280;4909;42.680;26.324;2023-01-27T11:39:59;97426.69;;;8.89;100.00
9740;BME280;4909;42.680;26.324;2023-01-27T11:42:31;97420.19;;;8.94;100.00
9740;BME280;4909;42.680;26.324;2023-01-27T11:45:03;97422.56;;;9.14;100.00
9740;BME280;4909;42.680;26.324;2023-01-27T11:47:35;97410.84;;;9.48;100.00
9740;BME280;4909;42.680;26.324;2023-01-27T11:50:04;97408.31;;;9.61;100.00
9740;BME280;4909;42.680;26.324;2023-01-27T11:52:33;97412.69;;;9.76;100.00
9740;BME280;4909;42.680;26.324;2023-01-27T11:55:04;97404.78;;;9.60;100.00
9740;BME280;4909;42.680;26.324;2023-01-27T11:57:33;97394.81;;;9.36;100.00
9740;BME280;4909;42.680;26.324;2023-01-27T12:00:04;97402.66;;;9.37;100.00
9740;BME280;4909;42.680;26.324;2023-01-27T12:02:35;97401.34;;;9.44;100.00
9740;BME280;4909;42.680;26.324;2023-01-27T12:05:07;97397.91;;;9.58;100.00
9740;BME280;4909;42.680;26.324;2023-01-27T12:07:42;97397.22;;;9.69;100.00
9740;BME280;4909;42.680;26.324;2023-01-27T12:10:23;97382.03;;;9.72;100.00
9740;BME280;4909;42.680;26.324;2023-01-27T12:12:51;97376.94;;;9.39;100.00
9740;BME280;4909;42.680;26.324;2023-01-27T12:15:18;97394.09;;;9.18;100.00
9740;BME280;4909;42.680;26.324;2023-01-27T12:17:47;97394.38;;;9.13;100.00
9740;BME280;4909;42.680;26.324;2023-01-27T12:20:25;97400.22;;;9.04;100.00
9740;BME280;4909;42.680;26.324;2023-01-27T12:22:57;97390.25;;;8.94;100.00
9740;BME280;4909;42.680;26.324;2023-01-27T12:25:26;97386.34;;;8.69;100.00
9740;BME280;4909;42.680;26.324;2023-01-27T12:27:56;97397.28;;;8.48;100.00
9740;BME280;4909;42.680;26.324;2023-01-27T12:30:26;97405.28;;;8.31;100.00
9740;BME280;4909;42.680;26.324;2023-01-27T12:32:54;97402.19;;;8.22;100.00
9740;BME280;4909;42.680;26.324;2023-01-27T12:35:23;97385.47;;;8.22;100.00
9740;BME280;4909;42.680;26.324;2023-01-27T12:37:56;97412.84;;;8.21;100.00
9740;BME280;4909;42.680;26.324;2023-01-27T12:40:25;97406.03;;;8.17;100.00
9740;BME280;4909;42.680;26.324;2023-01-27T12:43:10;97408.31;;;8.07;100.00
9740;BME280;4909;42.680;26.324;2023-01-27T12:45:37;97405.81;;;8.04;100.00
9740;BME280;4909;42.680;26.324;2023-01-27T12:48:19;97418.28;;;8.02;100.00
9740;BME280;4909;42.680;26.324;2023-01-27T12:51:02;97402.88;;;7.77;100.00
9740;BME280;4909;42.680;26.324;2023-01-27T12:53:31;97425.84;;;7.93;100.00
9740;BME280;4909;42.680;26.324;2023-01-27T12:56:03;97409.13;;;7.92;100.00
9740;BME280;4909;42.680;26.324;2023-01-27T12:58:33;97411.41;;;7.82;100.00
9740;BME280;4909;42.680;26.324;2023-01-27T13:01:03;97421.13;;;7.82;100.00
9740;BME280;4909;42.680;26.324;2023-01-27T13:03:36;97417.16;;;7.73;100.00
9740;BME280;4909;42.680;26.324;2023-01-27T13:06:04;97420.97;;;7.68;100.00
9740;BME280;4909;42.680;26.324;2023-01-27T13:08:37;97412.53;;;7.94;100.00
9740;BME280;4909;42.680;26.324;2023-01-27T13:11:05;97411.88;;;8.06;100.00
9740;BME280;4909;42.680;26.324;2023-01-27T13:13:32;97395.84;;;8.09;100.00
9740;BME280;4909;42.680;26.324;2023-01-27T13:16:04;97416.84;;;8.12;100.00
9740;BME280;4909;42.680;26.324;2023-01-27T13:18:33;97418.75;;;7.93;100.00
9740;BME280;4909;42.680;26.324;2023-01-27T13:21:10;97412.09;;;7.86;100.00
9740;BME280;4909;42.680;26.324;2023-01-27T13:23:40;97420.63;;;7.91;100.00
9740;BME280;4909;42.680;26.324;2023-01-27T13:26:13;97421.16;;;7.98;100.00
9740;BME280;4909;42.680;26.324;2023-01-27T13:28:44;97424.78;;;8.12;100.00